createdAt,value
2022-12-05T00:01:16.402Z,74.91
2022-12-05T00:03:43.489Z,75.51
2022-12-05T00:06:10.426Z,75.36
2022-12-05T00:08:37.402Z,74.84
2022-12-05T00:11:04.407Z,75.57
2022-12-05T00:13:31.368Z,74.80
2022-12-05T00:15:58.313Z,75.56
2022-12-05T00:18:25.261Z,74.63
2022-12-05T00:20:52.145Z,74.99
2022-12-05T00:23:19.085Z,75.36
2022-12-05T00:25:45.943Z,74.95
2022-12-05T00:28:12.955Z,75.28
2022-12-05T00:30:41.075Z,74.79
2022-12-05T00:33:08.013Z,75.07
2022-12-05T00:35:35.168Z,75.13
2022-12-05T00:38:02.308Z,75.46
2022-12-05T00:40:29.226Z,75.30
2022-12-05T00:42:56.185Z,75.08
2022-12-05T00:45:23.144Z,75.16
2022-12-05T00:47:50.127Z,75.52
2022-12-05T00:50:17.038Z,75.16
2022-12-05T00:52:44.002Z,75.49
2022-12-05T00:55:10.868Z,74.69
2022-12-05T00:57:37.791Z,75.22
2022-12-05T01:00:06.349Z,75.37
2022-12-05T01:02:33.274Z,75.09
2022-12-05T01:05:00.230Z,76.03
2022-12-05T01:07:27.177Z,75.53
2022-12-05T01:09:54.210Z,75.41
2022-12-05T01:12:21.290Z,75.60
2022-12-05T01:14:48.317Z,74.97
2022-12-05T01:17:15.286Z,75.63
2022-12-05T01:19:42.162Z,74.91
2022-12-05T01:22:09.102Z,74.75
2022-12-05T01:24:36.070Z,75.18
2022-12-05T01:27:03.052Z,74.93
2022-12-05T01:29:30.096Z,75.12
2022-12-05T01:31:57.284Z,74.56
2022-12-05T01:34:24.311Z,75.23
2022-12-05T01:36:51.341Z,74.81
2022-12-05T01:39:18.322Z,74.67
2022-12-05T01:41:46.984Z,75.14
2022-12-05T01:44:13.887Z,74.95
2022-12-05T01:46:50.682Z,74.88
2022-12-05T01:49:43.990Z,74.46
2022-12-05T01:52:14.789Z,74.44
2022-12-05T01:54:41.907Z,74.47
2022-12-05T01:57:11.084Z,75.00
2022-12-05T01:59:43.303Z,74.83
2022-12-05T02:02:10.286Z,75.38
2022-12-05T02:04:45.264Z,74.52
2022-12-05T02:07:12.189Z,74.96
2022-12-05T02:09:39.160Z,74.31
2022-12-05T02:12:06.243Z,74.99
2022-12-05T02:14:42.365Z,74.35
2022-12-05T02:17:31.540Z,74.85
2022-12-05T02:20:04.397Z,74.79
2022-12-05T02:23:18.842Z,74.08
2022-12-05T02:26:10.675Z,74.49
2022-12-05T02:29:14.912Z,74.79
2022-12-05T02:31:45.555Z,74.57
2022-12-05T02:34:15.545Z,74.34
2022-12-05T02:36:49.948Z,75.11
2022-12-05T02:39:45.040Z,74.62
2022-12-05T02:42:28.059Z,74.20
2022-12-05T02:44:58.040Z,74.59
2022-12-05T02:47:26.541Z,73.95
2022-12-05T02:49:54.023Z,74.92
2022-12-05T02:52:21.005Z,74.58
2022-12-05T02:54:48.892Z,74.29
2022-12-05T02:57:15.855Z,74.90
2022-12-05T02:59:42.903Z,74.77
2022-12-05T03:02:25.064Z,74.34
2022-12-05T03:04:52.519Z,75.13
2022-12-05T03:07:20.067Z,74.89
2022-12-05T03:09:48.017Z,74.81
2022-12-05T03:12:26.413Z,75.13
2022-12-05T03:14:58.415Z,74.28
2022-12-05T03:17:26.610Z,74.98
2022-12-05T03:19:59.031Z,74.70
2022-12-05T03:22:43.493Z,75.21
2022-12-05T03:25:10.715Z,75.08
2022-12-05T03:27:52.582Z,74.62
2022-12-05T03:30:22.905Z,75.17
2022-12-05T03:33:03.877Z,74.51
2022-12-05T03:35:39.223Z,74.84
2022-12-05T03:38:16.615Z,74.45
2022-12-05T03:40:48.918Z,74.76
2022-12-05T03:43:21.258Z,74.97
2022-12-05T03:45:50.894Z,75.26
2022-12-05T03:48:31.756Z,74.35
2022-12-05T03:50:58.792Z,75.17
2022-12-05T03:53:37.083Z,74.84
2022-12-05T03:56:07.006Z,74.59
2022-12-05T03:58:47.935Z,74.80
2022-12-05T04:01:15.091Z,74.98
2022-12-05T04:03:47.075Z,75.10
2022-12-05T04:06:19.080Z,74.81
2022-12-05T04:08:52.589Z,74.47
2022-12-05T04:11:21.570Z,74.98
2022-12-05T04:13:53.881Z,74.80
2022-12-05T04:16:47.344Z,74.60
2022-12-05T04:19:51.081Z,74.66
2022-12-05T04:22:18.973Z,74.58
2022-12-05T04:25:04.346Z,75.22
2022-12-05T04:27:52.100Z,75.36
2022-12-05T04:30:23.869Z,75.08
2022-12-05T04:33:05.395Z,74.28
2022-12-05T04:35:38.104Z,74.86
2022-12-05T04:38:09.072Z,75.01
2022-12-05T04:40:51.905Z,74.64
2022-12-05T04:43:19.105Z,74.80
2022-12-05T04:45:46.106Z,75.29
2022-12-05T04:48:15.376Z,74.85
2022-12-05T04:50:42.460Z,75.46
2022-12-05T04:53:09.619Z,74.64
2022-12-05T04:55:36.859Z,75.21
2022-12-05T04:58:10.795Z,75.27
2022-12-05T05:01:11.664Z,74.60
2022-12-05T05:03:44.360Z,75.24
2022-12-05T05:06:12.232Z,74.83
2022-12-05T05:08:51.743Z,75.02
2022-12-05T05:11:28.444Z,74.99
2022-12-05T05:13:55.582Z,75.07
2022-12-05T05:16:24.254Z,75.22
2022-12-05T05:18:51.445Z,74.60
2022-12-05T05:21:19.692Z,74.87
2022-12-05T05:23:46.758Z,74.92
2022-12-05T05:26:13.697Z,74.68
2022-12-05T05:28:40.692Z,74.56
2022-12-05T05:31:07.817Z,74.77
2022-12-05T05:33:35.790Z,74.72
2022-12-05T05:36:07.606Z,74.73
2022-12-05T05:38:44.997Z,75.00
2022-12-05T05:41:22.102Z,75.25
2022-12-05T05:43:49.538Z,75.39
2022-12-05T05:46:18.174Z,74.61
2022-12-05T05:48:46.700Z,74.71
2022-12-05T05:51:14.173Z,75.22
2022-12-05T05:53:41.624Z,74.86
2022-12-05T05:56:15.910Z,74.92
2022-12-05T05:58:45.696Z,74.63
2022-12-05T06:01:17.487Z,75.17
2022-12-05T06:03:44.597Z,74.85
2022-12-05T06:06:12.874Z,75.08
2022-12-05T06:08:41.601Z,74.36
2022-12-05T06:11:10.408Z,74.78
2022-12-05T06:13:37.402Z,74.97
2022-12-05T06:16:11.444Z,74.52
2022-12-05T06:18:38.538Z,74.50
2022-12-05T06:21:16.008Z,74.87
2022-12-05T06:23:43.470Z,74.71
2022-12-05T06:26:11.756Z,74.60
2022-12-05T06:28:39.639Z,74.84
2022-12-05T06:31:11.539Z,75.29
2022-12-05T06:33:38.824Z,75.51
2022-12-05T06:36:07.920Z,75.16
2022-12-05T06:38:41.753Z,75.00
2022-12-05T06:41:11.234Z,74.84
2022-12-05T06:43:38.213Z,74.63
2022-12-05T06:46:06.592Z,74.44
2022-12-05T06:48:33.755Z,74.83
2022-12-05T06:51:00.795Z,74.73
2022-12-05T06:53:28.191Z,74.94
2022-12-05T06:56:02.345Z,74.95
2022-12-05T06:58:29.609Z,74.56
2022-12-05T07:01:15.018Z,75.13
2022-12-05T07:03:44.164Z,74.91
2022-12-05T07:06:11.367Z,74.85
2022-12-05T07:08:38.415Z,75.28
2022-12-05T07:11:05.512Z,74.46
2022-12-05T07:13:32.848Z,74.46
2022-12-05T07:15:59.930Z,74.89
2022-12-05T07:18:27.116Z,75.38
2022-12-05T07:21:13.998Z,75.15
2022-12-05T07:23:42.553Z,74.63
2022-12-05T07:26:11.231Z,75.20
2022-12-05T07:28:38.223Z,75.58
2022-12-05T07:31:07.019Z,74.91
2022-12-05T07:33:34.084Z,74.94
2022-12-05T07:36:07.480Z,74.80
2022-12-05T07:38:34.473Z,75.25
2022-12-05T07:41:15.334Z,75.41
2022-12-05T07:43:42.425Z,75.28
2022-12-05T07:46:11.533Z,74.76
2022-12-05T07:48:38.976Z,75.36
2022-12-05T07:51:07.068Z,75.06
2022-12-05T07:53:34.568Z,75.39
2022-12-05T07:56:02.418Z,75.37
2022-12-05T07:58:29.658Z,74.93
2022-12-05T08:00:57.306Z,74.61
2022-12-05T08:03:24.501Z,75.09
2022-12-05T08:05:51.520Z,75.05
2022-12-05T08:08:18.661Z,75.03
2022-12-05T08:10:45.766Z,75.35
2022-12-05T08:13:16.003Z,74.54
2022-12-05T08:15:43.141Z,74.68
2022-12-05T08:18:10.037Z,75.17
2022-12-05T08:20:37.118Z,74.65
2022-12-05T08:23:04.028Z,75.20
2022-12-05T08:25:31.008Z,75.08
2022-12-05T08:27:57.981Z,74.93
2022-12-05T08:30:25.097Z,74.91
2022-12-05T08:32:52.060Z,75.06
2022-12-05T08:35:19.299Z,75.00
2022-12-05T08:37:46.282Z,75.54
2022-12-05T08:40:13.553Z,75.27
2022-12-05T08:42:40.636Z,74.80
2022-12-05T08:45:08.090Z,74.38
2022-12-05T08:47:35.016Z,74.63
2022-12-05T08:50:02.110Z,75.18
2022-12-05T08:52:29.026Z,75.23
2022-12-05T08:54:56.336Z,74.69
2022-12-05T08:57:23.528Z,74.17
2022-12-05T08:59:50.538Z,74.66
2022-12-05T09:02:17.567Z,74.72
2022-12-05T09:04:47.288Z,74.96
2022-12-05T09:07:16.530Z,74.79
2022-12-05T09:09:43.524Z,74.92
2022-12-05T09:12:10.487Z,74.74
2022-12-05T09:14:37.602Z,74.37
2022-12-05T09:17:04.651Z,74.49
2022-12-05T09:19:31.642Z,74.70
2022-12-05T09:21:58.614Z,74.48
2022-12-05T09:24:25.942Z,74.42
2022-12-05T09:26:53.079Z,74.96
2022-12-05T09:29:20.063Z,74.51
2022-12-05T09:31:47.872Z,74.99
2022-12-05T09:34:15.569Z,75.02
2022-12-05T09:36:42.884Z,74.69
2022-12-05T09:39:10.262Z,75.07
2022-12-05T09:42:05.060Z,75.19
2022-12-05T09:45:06.172Z,75.27
2022-12-05T09:47:36.873Z,75.28
2022-12-05T09:50:24.850Z,75.22
2022-12-05T09:53:11.603Z,75.38
2022-12-05T09:55:49.671Z,75.57
2022-12-05T09:58:29.647Z,75.96
2022-12-05T10:01:08.928Z,75.03
2022-12-05T10:04:04.679Z,75.00
2022-12-05T10:06:55.837Z,75.27
2022-12-05T10:09:53.727Z,75.84
2022-12-05T10:12:39.461Z,76.33
2022-12-05T10:15:12.320Z,76.36
2022-12-05T10:17:41.731Z,76.39
2022-12-05T10:20:39.103Z,76.11
2022-12-05T10:23:18.633Z,76.75
2022-12-05T10:25:59.585Z,76.88
2022-12-05T10:28:40.307Z,76.95
2022-12-05T10:31:11.829Z,76.31
2022-12-05T10:33:41.482Z,76.54
2022-12-05T10:36:14.562Z,76.35
2022-12-05T10:38:42.562Z,76.51
2022-12-05T10:41:11.557Z,76.17
2022-12-05T10:43:41.683Z,75.88
2022-12-05T10:46:12.733Z,76.08
2022-12-05T10:48:42.768Z,75.98
2022-12-05T10:51:15.539Z,75.87
2022-12-05T10:53:44.573Z,75.77
2022-12-05T10:56:40.184Z,75.93
2022-12-05T10:59:17.018Z,75.85
2022-12-05T11:01:55.341Z,76.03
2022-12-05T11:04:40.408Z,76.35
2022-12-05T11:07:07.972Z,76.44
2022-12-05T11:09:38.096Z,75.62
2022-12-05T11:12:36.186Z,76.12
2022-12-05T11:15:07.749Z,76.48
2022-12-05T11:17:38.780Z,75.99
2022-12-05T11:20:17.961Z,75.97
2022-12-05T11:22:52.577Z,75.84
2022-12-05T11:25:28.755Z,76.43
2022-12-05T11:28:00.939Z,75.96
2022-12-05T11:30:29.441Z,76.38
2022-12-05T11:33:18.761Z,76.12
2022-12-05T11:35:46.473Z,76.45
2022-12-05T11:38:13.424Z,76.64
2022-12-05T11:40:47.320Z,76.49
2022-12-05T11:43:37.569Z,76.39
2022-12-05T11:46:07.634Z,76.29
2022-12-05T11:48:52.545Z,76.13
2022-12-05T11:51:39.542Z,76.51
2022-12-05T11:54:35.899Z,76.15
2022-12-05T11:57:27.144Z,76.31
2022-12-05T12:00:20.073Z,75.83
2022-12-05T12:03:19.207Z,75.97
2022-12-05T12:06:05.021Z,76.55
2022-12-05T12:08:39.814Z,76.22
2022-12-05T12:11:28.432Z,76.28
2022-12-05T12:14:01.262Z,75.88
2022-12-05T12:16:46.477Z,76.19
2022-12-05T12:19:21.110Z,75.84
2022-12-05T12:22:12.930Z,76.07
2022-12-05T12:24:55.379Z,76.61
2022-12-05T12:27:28.635Z,75.80
2022-12-05T12:30:04.298Z,76.30
2022-12-05T12:32:54.243Z,75.96
2022-12-05T12:35:50.673Z,75.95
2022-12-05T12:38:27.589Z,76.00
2022-12-05T12:41:07.278Z,76.49
2022-12-05T12:43:57.279Z,75.90
2022-12-05T12:46:24.279Z,76.39
2022-12-05T12:49:20.751Z,75.70
2022-12-05T12:52:02.236Z,75.85
2022-12-05T12:54:54.794Z,76.60
2022-12-05T12:57:28.553Z,76.28
2022-12-05T13:00:20.958Z,76.44
2022-12-05T13:02:52.595Z,75.71
2022-12-05T13:05:39.492Z,76.00
2022-12-05T13:08:35.619Z,76.08
2022-12-05T13:11:04.094Z,75.87
2022-12-05T13:13:36.792Z,76.55
2022-12-05T13:16:07.831Z,75.69
2022-12-05T13:18:35.134Z,75.85
2022-12-05T13:21:05.728Z,75.88
2022-12-05T13:23:34.543Z,75.61
2022-12-05T13:26:01.532Z,76.13
2022-12-05T13:28:31.504Z,76.07
2022-12-05T13:31:01.733Z,76.53
2022-12-05T13:33:35.448Z,76.59
2022-12-05T13:36:27.497Z,76.13
2022-12-05T13:39:18.119Z,76.19
2022-12-05T13:42:05.209Z,76.37
2022-12-05T13:44:56.583Z,75.81
2022-12-05T13:47:41.494Z,76.63
2022-12-05T13:50:17.022Z,76.84
2022-12-05T13:52:49.587Z,76.41
2022-12-05T13:55:36.226Z,76.44
2022-12-05T13:58:24.090Z,75.99
2022-12-05T14:00:51.858Z,76.28
2022-12-05T14:03:38.725Z,76.35
2022-12-05T14:06:06.819Z,76.67
2022-12-05T14:08:39.479Z,76.06
2022-12-05T14:11:09.307Z,75.89
2022-12-05T14:13:41.482Z,75.62
2022-12-05T14:16:23.970Z,75.92
2022-12-05T14:18:51.138Z,76.66
2022-12-05T14:21:42.716Z,76.01
2022-12-05T14:24:39.299Z,76.45
2022-12-05T14:27:45.184Z,76.57
2022-12-05T14:30:22.090Z,76.67
2022-12-05T14:32:49.075Z,75.92
2022-12-05T14:35:16.539Z,75.97
2022-12-05T14:37:56.894Z,76.31
2022-12-05T14:40:23.928Z,76.50
2022-12-05T14:42:58.305Z,76.36
2022-12-05T14:45:29.477Z,75.95
2022-12-05T14:48:04.357Z,76.05
2022-12-05T14:50:37.191Z,75.99
2022-12-05T14:53:22.404Z,75.62
2022-12-05T14:55:50.408Z,75.99
2022-12-05T14:58:22.440Z,76.52
2022-12-05T15:00:57.091Z,75.38
2022-12-05T15:03:29.588Z,75.45
2022-12-05T15:06:03.118Z,76.05
2022-12-05T15:08:32.321Z,76.19
2022-12-05T15:10:59.264Z,76.32
2022-12-05T15:13:28.512Z,75.98
2022-12-05T15:15:59.824Z,75.84
2022-12-05T15:18:44.805Z,76.01
2022-12-05T15:21:17.774Z,76.02
2022-12-05T15:23:46.507Z,75.88
2022-12-05T15:26:45.672Z,75.81
2022-12-05T15:29:08.092Z,76.16
2022-12-05T15:31:49.147Z,75.89
2022-12-05T15:34:29.959Z,75.84
2022-12-05T15:37:04.382Z,76.00
2022-12-05T15:39:31.374Z,75.95
2022-12-05T15:41:58.316Z,75.65
2022-12-05T15:44:34.266Z,76.09
2022-12-05T15:47:04.580Z,76.15
2022-12-05T15:49:31.529Z,75.73
2022-12-05T15:52:15.868Z,76.34
2022-12-05T15:54:42.958Z,75.94
2022-12-05T15:57:33.606Z,75.84
2022-12-05T16:00:06.531Z,76.17
2022-12-05T16:02:50.259Z,76.58
2022-12-05T16:05:31.577Z,76.57
2022-12-05T16:07:58.562Z,76.01
2022-12-05T16:10:29.471Z,76.23
2022-12-05T16:12:56.781Z,76.09
2022-12-05T16:15:25.758Z,75.97
2022-12-05T16:17:54.969Z,76.83
2022-12-05T16:20:33.137Z,77.00
2022-12-05T16:23:26.410Z,77.52
2022-12-05T16:25:53.478Z,77.35
2022-12-05T16:28:21.593Z,77.30
2022-12-05T16:31:02.041Z,77.30
2022-12-05T16:33:30.029Z,77.32
2022-12-05T16:35:57.104Z,77.52
2022-12-05T16:38:26.045Z,76.96
2022-12-05T16:40:57.109Z,77.00
2022-12-05T16:43:30.341Z,76.40
2022-12-05T16:46:15.350Z,76.60
2022-12-05T16:48:47.653Z,76.05
2022-12-05T16:51:14.768Z,76.88
2022-12-05T16:53:48.781Z,76.00
2022-12-05T16:56:26.013Z,76.34
2022-12-05T16:58:53.021Z,76.69
2022-12-05T17:01:24.808Z,76.55
2022-12-05T17:03:53.881Z,76.25
2022-12-05T17:06:21.589Z,76.83
2022-12-05T17:08:48.607Z,76.11
2022-12-05T17:11:23.670Z,76.83
2022-12-05T17:13:50.674Z,75.88
2022-12-05T17:16:18.441Z,76.48
2022-12-05T17:18:45.536Z,76.39
2022-12-05T17:21:16.825Z,76.25
2022-12-05T17:23:48.131Z,76.18
2022-12-05T17:26:17.158Z,75.86
2022-12-05T17:28:44.097Z,76.69
2022-12-05T17:31:16.907Z,76.21
2022-12-05T17:33:47.085Z,76.36
2022-12-05T17:36:14.301Z,76.44
2022-12-05T17:38:41.507Z,76.15
2022-12-05T17:41:08.611Z,76.54
2022-12-05T17:43:35.551Z,76.08
2022-12-05T17:46:03.019Z,76.70
2022-12-05T17:48:29.996Z,76.02
2022-12-05T17:50:57.996Z,76.53
2022-12-05T17:53:25.005Z,76.06
2022-12-05T17:55:52.283Z,76.55
2022-12-05T17:58:19.256Z,76.73
2022-12-05T18:00:46.998Z,76.36
2022-12-05T18:03:15.988Z,76.33
2022-12-05T18:05:43.153Z,76.00
2022-12-05T18:08:13.565Z,76.34
2022-12-05T18:10:44.702Z,76.27
2022-12-05T18:13:11.805Z,75.76
2022-12-05T18:15:42.791Z,76.72
2022-12-05T18:18:14.734Z,76.20
2022-12-05T18:20:41.757Z,76.18
2022-12-05T18:23:08.812Z,76.26
2022-12-05T18:25:38.201Z,76.00
2022-12-05T18:28:05.175Z,76.56
2022-12-05T18:30:32.186Z,76.66
2022-12-05T18:32:59.106Z,76.67
2022-12-05T18:35:46.404Z,76.48
2022-12-05T18:38:13.440Z,76.73
2022-12-05T18:40:40.403Z,76.80
2022-12-05T18:43:07.438Z,76.42
2022-12-05T18:45:34.460Z,76.69
2022-12-05T18:48:16.277Z,76.77
2022-12-05T18:50:48.809Z,76.81
2022-12-05T18:53:15.751Z,76.32
2022-12-05T18:56:20.860Z,76.52
2022-12-05T18:58:30.944Z,76.44
2022-12-05T19:01:08.289Z,76.56
2022-12-05T19:03:36.399Z,76.37
2022-12-05T19:06:11.269Z,76.92
2022-12-05T19:08:38.249Z,76.83
2022-12-05T19:11:05.785Z,76.81
2022-12-05T19:13:32.703Z,76.38
2022-12-05T19:16:04.190Z,76.12
2022-12-05T19:18:31.390Z,76.75
2022-12-05T19:20:58.332Z,76.24
2022-12-05T19:23:25.629Z,76.15
2022-12-05T19:25:59.966Z,76.45
2022-12-05T19:28:26.951Z,76.66
2022-12-05T19:31:01.357Z,76.35
2022-12-05T19:33:35.255Z,76.65
2022-12-05T19:36:04.050Z,76.76
2022-12-05T19:38:32.840Z,76.56
2022-12-05T19:40:59.849Z,77.12
2022-12-05T19:43:28.550Z,77.21
2022-12-05T19:45:56.124Z,77.37
2022-12-05T19:48:23.415Z,77.33
2022-12-05T19:50:56.860Z,77.12
2022-12-05T19:53:24.897Z,77.37
2022-12-05T19:55:52.438Z,77.14
2022-12-05T19:58:19.377Z,77.30
2022-12-05T20:00:46.624Z,77.26
2022-12-05T20:03:13.570Z,77.11
2022-12-05T20:05:40.549Z,77.33
2022-12-05T20:08:07.696Z,76.71
2022-12-05T20:10:35.885Z,77.40
2022-12-05T20:13:08.833Z,76.61
2022-12-05T20:15:45.141Z,77.28
2022-12-05T20:18:13.605Z,77.07
2022-12-05T20:20:40.771Z,77.03
2022-12-05T20:23:08.030Z,77.45
2022-12-05T20:25:38.078Z,76.74
2022-12-05T20:28:06.050Z,77.38
2022-12-05T20:30:33.142Z,76.68
2022-12-05T20:33:00.093Z,77.30
2022-12-05T20:35:26.976Z,76.91
2022-12-05T20:37:53.951Z,77.18
2022-12-05T20:40:20.860Z,76.70
2022-12-05T20:42:47.811Z,76.94
2022-12-05T20:45:14.845Z,76.85
2022-12-05T20:47:41.774Z,76.74
2022-12-05T20:50:09.336Z,77.15
2022-12-05T20:52:36.319Z,76.78
2022-12-05T20:55:03.414Z,77.64
2022-12-05T20:57:30.441Z,77.02
2022-12-05T20:59:57.651Z,76.92
2022-12-05T21:02:24.781Z,77.08
2022-12-05T21:04:51.877Z,77.31
2022-12-05T21:07:18.971Z,77.53
2022-12-05T21:09:46.018Z,76.96
2022-12-05T21:12:13.012Z,77.37
2022-12-05T21:14:40.108Z,77.04
2022-12-05T21:17:07.114Z,77.13
2022-12-05T21:19:34.415Z,77.37
2022-12-05T21:22:01.680Z,77.68
2022-12-05T21:24:29.051Z,77.53
2022-12-05T21:26:58.229Z,77.70
2022-12-05T21:29:29.815Z,77.06
2022-12-05T21:31:57.587Z,77.35
2022-12-05T21:34:29.616Z,77.48
2022-12-05T21:36:59.360Z,77.25
2022-12-05T21:39:26.345Z,77.45
2022-12-05T21:41:53.331Z,77.71
2022-12-05T21:44:20.365Z,77.73
2022-12-05T21:46:48.606Z,77.77
2022-12-05T21:49:15.736Z,77.70
2022-12-05T21:51:42.784Z,77.35
2022-12-05T21:54:09.934Z,77.40
2022-12-05T21:56:36.884Z,77.17
2022-12-05T21:59:03.893Z,77.62
2022-12-05T22:01:30.988Z,77.70
2022-12-05T22:04:02.100Z,77.50
2022-12-05T22:06:30.189Z,77.49
2022-12-05T22:08:57.335Z,77.94
2022-12-05T22:11:24.517Z,77.61
2022-12-05T22:13:51.811Z,77.48
2022-12-05T22:16:19.016Z,77.66
2022-12-05T22:18:46.150Z,77.27
2022-12-05T22:21:18.146Z,77.58
2022-12-05T22:23:45.092Z,77.80
2022-12-05T22:26:21.262Z,77.64
2022-12-05T22:28:52.581Z,77.35
2022-12-05T22:31:19.773Z,77.48
2022-12-05T22:33:46.950Z,77.60
2022-12-05T22:36:15.325Z,77.68
2022-12-05T22:38:43.416Z,78.16
2022-12-05T22:41:14.288Z,77.68
2022-12-05T22:43:41.669Z,78.14
2022-12-05T22:46:10.500Z,77.66
2022-12-05T22:48:37.675Z,78.10
2022-12-05T22:51:04.983Z,77.73
2022-12-05T22:53:32.032Z,77.84
2022-12-05T22:56:17.636Z,78.13
2022-12-05T22:58:45.265Z,78.35
2022-12-05T23:01:21.100Z,77.99
2022-12-05T23:03:49.387Z,78.15
2022-12-05T23:06:17.386Z,77.85
2022-12-05T23:08:45.698Z,77.92
2022-12-05T23:11:12.784Z,78.00
2022-12-05T23:13:39.840Z,78.33
2022-12-05T23:16:11.455Z,78.42
2022-12-05T23:18:47.556Z,77.58
2022-12-05T23:21:24.628Z,78.36
2022-12-05T23:23:53.032Z,78.04
2022-12-05T23:26:21.198Z,78.45
2022-12-05T23:28:48.247Z,78.69
2022-12-05T23:31:15.309Z,78.41
2022-12-05T23:33:42.436Z,78.50
2022-12-05T23:36:09.775Z,77.94
2022-12-05T23:38:37.475Z,78.11
2022-12-05T23:41:09.166Z,78.33
2022-12-05T23:43:36.473Z,78.43
2022-12-05T23:46:04.253Z,78.47
2022-12-05T23:48:31.185Z,78.02
2022-12-05T23:51:15.944Z,78.17
2022-12-05T23:53:43.635Z,78.00
2022-12-05T23:56:14.261Z,78.72
2022-12-05T23:58:41.288Z,78.39
